sensor_id;sensor_type;location;lat;lon;timestamp;P1;durP1;ratioP1;P2;durP2;ratioP2
21038;SDS011;10678;51.002;4.786;2023-06-14T00:00:32;11.32;;;4.28;;
21038;SDS011;10678;51.002;4.786;2023-06-14T00:02:59;9.48;;;4.85;;
21038;SDS011;10678;51.002;4.786;2023-06-14T00:05:25;8.57;;;4.60;;
21038;SDS011;10678;51.002;4.786;2023-06-14T00:07:51;8.07;;;4.30;;
21038;SDS011;10678;51.002;4.786;2023-06-14T00:10:18;9.70;;;4.78;;
21038;SDS011;10678;51.002;4.786;2023-06-14T00:12:44;9.60;;;4.15;;
21038;SDS011;10678;51.002;4.786;2023-06-14T00:15:10;10.00;;;4.95;;
21038;SDS011;10678;51.002;4.786;2023-06-14T00:17:36;11.27;;;4.88;;
21038;SDS011;10678;51.002;4.786;2023-06-14T00:20:04;10.43;;;4.90;;
21038;SDS011;10678;51.002;4.786;2023-06-14T00:22:32;12.27;;;4.35;;
21038;SDS011;10678;51.002;4.786;2023-06-14T00:24:58;8.30;;;4.95;;
21038;SDS011;10678;51.002;4.786;2023-06-14T00:27:24;7.22;;;4.45;;
21038;SDS011;10678;51.002;4.786;2023-06-14T00:29:50;9.02;;;4.88;;
21038;SDS011;10678;51.002;4.786;2023-06-14T00:32:15;7.18;;;4.13;;
21038;SDS011;10678;51.002;4.786;2023-06-14T00:34:41;8.27;;;4.90;;
21038;SDS011;10678;51.002;4.786;2023-06-14T00:37:06;9.50;;;4.80;;
21038;SDS011;10678;51.002;4.786;2023-06-14T00:39:33;9.23;;;4.75;;
21038;SDS011;10678;51.002;4.786;2023-06-14T00:41:59;11.73;;;5.15;;
21038;SDS011;10678;51.002;4.786;2023-06-14T00:44:25;7.90;;;4.43;;
21038;SDS011;10678;51.002;4.786;2023-06-14T00:46:51;11.52;;;4.60;;
21038;SDS011;10678;51.002;4.786;2023-06-14T00:49:16;9.10;;;4.78;;
21038;SDS011;10678;51.002;4.786;2023-06-14T00:51:44;10.63;;;5.20;;
21038;SDS011;10678;51.002;4.786;2023-06-14T00:54:10;9.85;;;5.22;;
21038;SDS011;10678;51.002;4.786;2023-06-14T00:56:36;11.02;;;5.38;;
21038;SDS011;10678;51.002;4.786;2023-06-14T00:59:02;12.63;;;5.35;;
21038;SDS011;10678;51.002;4.786;2023-06-14T01:01:29;10.52;;;4.78;;
21038;SDS011;10678;51.002;4.786;2023-06-14T01:04:00;9.02;;;5.18;;
21038;SDS011;10678;51.002;4.786;2023-06-14T01:09:23;9.00;;;4.97;;
21038;SDS011;10678;51.002;4.786;2023-06-14T01:14:39;7.07;;;4.57;;
21038;SDS011;10678;51.002;4.786;2023-06-14T01:17:06;11.27;;;5.38;;
21038;SDS011;10678;51.002;4.786;2023-06-14T01:19:40;12.32;;;5.68;;
21038;SDS011;10678;51.002;4.786;2023-06-14T01:22:07;9.35;;;5.15;;
21038;SDS011;10678;51.002;4.786;2023-06-14T01:24:33;8.25;;;4.70;;
21038;SDS011;10678;51.002;4.786;2023-06-14T01:27:00;11.15;;;5.18;;
21038;SDS011;10678;51.002;4.786;2023-06-14T01:29:27;9.75;;;5.03;;
21038;SDS011;10678;51.002;4.786;2023-06-14T01:31:57;9.82;;;5.20;;
21038;SDS011;10678;51.002;4.786;2023-06-14T01:34:24;7.53;;;4.75;;
21038;SDS011;10678;51.002;4.786;2023-06-14T01:36:50;9.30;;;5.28;;
21038;SDS011;10678;51.002;4.786;2023-06-14T01:39:17;9.95;;;5.53;;
21038;SDS011;10678;51.002;4.786;2023-06-14T01:41:43;7.45;;;4.38;;
21038;SDS011;10678;51.002;4.786;2023-06-14T01:44:10;12.05;;;5.22;;
21038;SDS011;10678;51.002;4.786;2023-06-14T01:46:38;12.70;;;5.68;;
21038;SDS011;10678;51.002;4.786;2023-06-14T01:49:05;8.30;;;4.70;;
21038;SDS011;10678;51.002;4.786;2023-06-14T01:51:32;11.27;;;4.78;;
21038;SDS011;10678;51.002;4.786;2023-06-14T01:53:57;12.25;;;5.50;;
21038;SDS011;10678;51.002;4.786;2023-06-14T01:56:24;7.70;;;4.63;;
21038;SDS011;10678;51.002;4.786;2023-06-14T01:58:51;9.30;;;5.13;;
21038;SDS011;10678;51.002;4.786;2023-06-14T02:01:17;12.10;;;5.25;;
21038;SDS011;10678;51.002;4.786;2023-06-14T02:03:44;10.32;;;5.35;;
21038;SDS011;10678;51.002;4.786;2023-06-14T02:06:10;8.40;;;4.90;;
21038;SDS011;10678;51.002;4.786;2023-06-14T02:08:35;12.00;;;5.70;;
21038;SDS011;10678;51.002;4.786;2023-06-14T02:11:01;10.18;;;5.25;;
21038;SDS011;10678;51.002;4.786;2023-06-14T02:13:27;8.93;;;5.35;;
21038;SDS011;10678;51.002;4.786;2023-06-14T02:15:52;11.05;;;5.07;;
21038;SDS011;10678;51.002;4.786;2023-06-14T02:18:19;8.82;;;5.25;;
21038;SDS011;10678;51.002;4.786;2023-06-14T02:20:46;10.73;;;5.38;;
21038;SDS011;10678;51.002;4.786;2023-06-14T02:23:12;8.82;;;5.45;;
21038;SDS011;10678;51.002;4.786;2023-06-14T02:25:38;8.00;;;4.90;;
21038;SDS011;10678;51.002;4.786;2023-06-14T02:28:05;10.55;;;5.53;;
21038;SDS011;10678;51.002;4.786;2023-06-14T02:30:31;11.45;;;5.65;;
21038;SDS011;10678;51.002;4.786;2023-06-14T02:32:56;8.70;;;5.82;;
21038;SDS011;10678;51.002;4.786;2023-06-14T02:35:22;10.35;;;5.75;;
21038;SDS011;10678;51.002;4.786;2023-06-14T02:37:51;12.85;;;5.80;;
21038;SDS011;10678;51.002;4.786;2023-06-14T02:40:17;17.05;;;5.55;;
21038;SDS011;10678;51.002;4.786;2023-06-14T02:42:44;10.48;;;5.72;;
21038;SDS011;10678;51.002;4.786;2023-06-14T02:45:09;8.65;;;4.97;;
21038;SDS011;10678;51.002;4.786;2023-06-14T02:47:35;13.02;;;6.30;;
21038;SDS011;10678;51.002;4.786;2023-06-14T02:50:01;15.30;;;6.25;;
21038;SDS011;10678;51.002;4.786;2023-06-14T02:52:27;13.35;;;5.72;;
21038;SDS011;10678;51.002;4.786;2023-06-14T02:54:53;9.75;;;5.70;;
21038;SDS011;10678;51.002;4.786;2023-06-14T02:57:19;8.10;;;4.97;;
21038;SDS011;10678;51.002;4.786;2023-06-14T02:59:46;13.27;;;5.50;;
21038;SDS011;10678;51.002;4.786;2023-06-14T03:02:12;14.27;;;5.95;;
21038;SDS011;10678;51.002;4.786;2023-06-14T03:04:38;9.85;;;5.43;;
21038;SDS011;10678;51.002;4.786;2023-06-14T03:07:04;9.57;;;5.82;;
21038;SDS011;10678;51.002;4.786;2023-06-14T03:09:37;9.25;;;6.40;;
21038;SDS011;10678;51.002;4.786;2023-06-14T03:12:03;11.05;;;6.20;;
21038;SDS011;10678;51.002;4.786;2023-06-14T03:14:32;11.05;;;5.60;;
21038;SDS011;10678;51.002;4.786;2023-06-14T03:16:58;9.68;;;5.70;;
21038;SDS011;10678;51.002;4.786;2023-06-14T03:19:25;9.38;;;5.72;;
21038;SDS011;10678;51.002;4.786;2023-06-14T03:21:51;9.07;;;5.95;;
21038;SDS011;10678;51.002;4.786;2023-06-14T03:24:18;14.02;;;5.60;;
21038;SDS011;10678;51.002;4.786;2023-06-14T03:26:44;13.88;;;6.43;;
21038;SDS011;10678;51.002;4.786;2023-06-14T03:29:10;10.50;;;5.93;;
21038;SDS011;10678;51.002;4.786;2023-06-14T03:31:36;11.75;;;5.65;;
21038;SDS011;10678;51.002;4.786;2023-06-14T03:34:05;10.82;;;5.70;;
21038;SDS011;10678;51.002;4.786;2023-06-14T03:36:30;13.40;;;6.53;;
21038;SDS011;10678;51.002;4.786;2023-06-14T03:38:58;10.55;;;5.40;;
21038;SDS011;10678;51.002;4.786;2023-06-14T03:41:24;10.32;;;6.30;;
21038;SDS011;10678;51.002;4.786;2023-06-14T03:43:50;11.10;;;5.68;;
21038;SDS011;10678;51.002;4.786;2023-06-14T03:46:15;12.32;;;5.60;;
21038;SDS011;10678;51.002;4.786;2023-06-14T03:48:41;10.07;;;6.47;;
21038;SDS011;10678;51.002;4.786;2023-06-14T03:51:06;11.10;;;6.22;;
21038;SDS011;10678;51.002;4.786;2023-06-14T03:53:32;10.13;;;6.18;;
21038;SDS011;10678;51.002;4.786;2023-06-14T03:56:00;14.85;;;6.63;;
21038;SDS011;10678;51.002;4.786;2023-06-14T03:58:25;12.25;;;6.80;;
21038;SDS011;10678;51.002;4.786;2023-06-14T04:00:51;12.90;;;6.32;;
21038;SDS011;10678;51.002;4.786;2023-06-14T04:03:17;11.82;;;5.60;;
21038;SDS011;10678;51.002;4.786;2023-06-14T04:05:44;10.77;;;6.13;;
21038;SDS011;10678;51.002;4.786;2023-06-14T04:08:14;12.55;;;6.07;;
21038;SDS011;10678;51.002;4.786;2023-06-14T04:10:40;11.95;;;5.88;;
21038;SDS011;10678;51.002;4.786;2023-06-14T04:13:06;12.60;;;6.07;;
21038;SDS011;10678;51.002;4.786;2023-06-14T04:15:32;11.18;;;6.30;;
21038;SDS011;10678;51.002;4.786;2023-06-14T04:17:58;9.68;;;5.88;;
21038;SDS011;10678;51.002;4.786;2023-06-14T04:20:24;9.07;;;6.00;;
21038;SDS011;10678;51.002;4.786;2023-06-14T04:22:50;8.60;;;5.47;;
21038;SDS011;10678;51.002;4.786;2023-06-14T04:25:17;9.38;;;6.20;;
21038;SDS011;10678;51.002;4.786;2023-06-14T04:27:43;11.38;;;6.28;;
21038;SDS011;10678;51.002;4.786;2023-06-14T04:30:09;12.32;;;5.93;;
21038;SDS011;10678;51.002;4.786;2023-06-14T04:32:35;9.65;;;6.45;;
21038;SDS011;10678;51.002;4.786;2023-06-14T04:35:07;8.90;;;6.00;;
21038;SDS011;10678;51.002;4.786;2023-06-14T04:37:33;14.02;;;6.03;;
21038;SDS011;10678;51.002;4.786;2023-06-14T04:39:59;11.23;;;5.78;;
21038;SDS011;10678;51.002;4.786;2023-06-14T04:42:25;8.20;;;5.50;;
21038;SDS011;10678;51.002;4.786;2023-06-14T04:44:55;11.75;;;5.45;;
21038;SDS011;10678;51.002;4.786;2023-06-14T04:47:21;13.40;;;5.82;;
21038;SDS011;10678;51.002;4.786;2023-06-14T04:49:47;12.57;;;6.28;;
21038;SDS011;10678;51.002;4.786;2023-06-14T04:52:12;8.02;;;5.13;;
21038;SDS011;10678;51.002;4.786;2023-06-14T04:54:41;10.65;;;5.22;;
21038;SDS011;10678;51.002;4.786;2023-06-14T04:57:08;10.00;;;5.97;;
21038;SDS011;10678;51.002;4.786;2023-06-14T04:59:38;15.25;;;6.13;;
21038;SDS011;10678;51.002;4.786;2023-06-14T05:02:04;9.70;;;5.88;;
21038;SDS011;10678;51.002;4.786;2023-06-14T05:04:30;12.25;;;5.55;;
21038;SDS011;10678;51.002;4.786;2023-06-14T05:06:56;10.18;;;5.75;;
21038;SDS011;10678;51.002;4.786;2023-06-14T05:09:21;9.15;;;5.68;;
21038;SDS011;10678;51.002;4.786;2023-06-14T05:11:47;13.95;;;5.75;;
21038;SDS011;10678;51.002;4.786;2023-06-14T05:14:13;9.68;;;5.93;;
21038;SDS011;10678;51.002;4.786;2023-06-14T05:16:39;10.25;;;5.90;;
21038;SDS011;10678;51.002;4.786;2023-06-14T05:19:05;14.38;;;5.47;;
21038;SDS011;10678;51.002;4.786;2023-06-14T05:21:32;9.38;;;5.80;;
21038;SDS011;10678;51.002;4.786;2023-06-14T05:23:59;11.52;;;6.25;;
21038;SDS011;10678;51.002;4.786;2023-06-14T05:26:25;11.52;;;5.88;;
21038;SDS011;10678;51.002;4.786;2023-06-14T05:28:56;9.02;;;5.22;;
21038;SDS011;10678;51.002;4.786;2023-06-14T05:31:23;12.73;;;6.63;;
21038;SDS011;10678;51.002;4.786;2023-06-14T05:33:51;13.50;;;5.85;;
21038;SDS011;10678;51.002;4.786;2023-06-14T05:36:17;9.88;;;5.85;;
21038;SDS011;10678;51.002;4.786;2023-06-14T05:38:43;12.05;;;6.47;;
21038;SDS011;10678;51.002;4.786;2023-06-14T05:41:08;11.88;;;6.03;;
21038;SDS011;10678;51.002;4.786;2023-06-14T05:43:34;13.30;;;5.65;;
21038;SDS011;10678;51.002;4.786;2023-06-14T05:46:00;11.23;;;5.70;;
21038;SDS011;10678;51.002;4.786;2023-06-14T05:48:25;11.63;;;5.55;;
21038;SDS011;10678;51.002;4.786;2023-06-14T05:50:51;9.57;;;5.45;;
21038;SDS011;10678;51.002;4.786;2023-06-14T05:53:16;13.55;;;6.13;;
21038;SDS011;10678;51.002;4.786;2023-06-14T05:55:42;12.90;;;6.32;;
21038;SDS011;10678;51.002;4.786;2023-06-14T05:58:08;11.30;;;6.35;;
21038;SDS011;10678;51.002;4.786;2023-06-14T06:00:33;11.68;;;6.85;;
21038;SDS011;10678;51.002;4.786;2023-06-14T06:02:59;9.50;;;6.15;;
21038;SDS011;10678;51.002;4.786;2023-06-14T06:05:25;9.45;;;5.55;;
21038;SDS011;10678;51.002;4.786;2023-06-14T06:07:51;8.35;;;5.90;;
21038;SDS011;10678;51.002;4.786;2023-06-14T06:10:17;14.25;;;6.35;;
21038;SDS011;10678;51.002;4.786;2023-06-14T06:12:43;14.13;;;6.75;;
21038;SDS011;10678;51.002;4.786;2023-06-14T06:15:08;13.77;;;6.65;;
21038;SDS011;10678;51.002;4.786;2023-06-14T06:17:37;13.93;;;6.82;;
21038;SDS011;10678;51.002;4.786;2023-06-14T06:20:04;11.60;;;5.60;;
21038;SDS011;10678;51.002;4.786;2023-06-14T06:22:33;9.43;;;6.35;;
21038;SDS011;10678;51.002;4.786;2023-06-14T06:24:59;10.73;;;6.13;;
21038;SDS011;10678;51.002;4.786;2023-06-14T06:27:24;10.23;;;5.88;;
21038;SDS011;10678;51.002;4.786;2023-06-14T06:29:50;17.25;;;6.82;;
21038;SDS011;10678;51.002;4.786;2023-06-14T06:32:16;11.70;;;5.95;;
21038;SDS011;10678;51.002;4.786;2023-06-14T06:34:42;10.35;;;5.65;;
21038;SDS011;10678;51.002;4.786;2023-06-14T06:37:08;13.60;;;5.65;;
21038;SDS011;10678;51.002;4.786;2023-06-14T06:39:34;10.38;;;5.32;;
21038;SDS011;10678;51.002;4.786;2023-06-14T06:42:00;11.45;;;5.75;;
21038;SDS011;10678;51.002;4.786;2023-06-14T06:44:25;13.20;;;5.93;;
21038;SDS011;10678;51.002;4.786;2023-06-14T06:46:51;13.85;;;6.10;;
21038;SDS011;10678;51.002;4.786;2023-06-14T06:49:17;15.13;;;6.57;;
21038;SDS011;10678;51.002;4.786;2023-06-14T06:51:43;10.02;;;5.75;;
21038;SDS011;10678;51.002;4.786;2023-06-14T06:54:09;12.15;;;5.72;;
21038;SDS011;10678;51.002;4.786;2023-06-14T06:56:35;13.75;;;5.97;;
21038;SDS011;10678;51.002;4.786;2023-06-14T06:59:01;11.63;;;5.47;;
21038;SDS011;10678;51.002;4.786;2023-06-14T07:01:27;13.18;;;5.97;;
21038;SDS011;10678;51.002;4.786;2023-06-14T07:03:54;12.48;;;5.28;;
21038;SDS011;10678;51.002;4.786;2023-06-14T07:06:20;17.45;;;6.80;;
21038;SDS011;10678;51.002;4.786;2023-06-14T07:08:46;13.13;;;5.90;;
21038;SDS011;10678;51.002;4.786;2023-06-14T07:11:14;14.93;;;5.70;;
21038;SDS011;10678;51.002;4.786;2023-06-14T07:13:40;10.57;;;6.18;;
21038;SDS011;10678;51.002;4.786;2023-06-14T07:16:05;8.60;;;5.00;;
21038;SDS011;10678;51.002;4.786;2023-06-14T07:18:31;12.52;;;5.30;;
21038;SDS011;10678;51.002;4.786;2023-06-14T07:20:57;19.77;;;5.68;;
21038;SDS011;10678;51.002;4.786;2023-06-14T07:23:23;13.93;;;4.95;;
21038;SDS011;10678;51.002;4.786;2023-06-14T07:25:48;11.13;;;5.53;;
21038;SDS011;10678;51.002;4.786;2023-06-14T07:28:16;10.90;;;5.45;;
21038;SDS011;10678;51.002;4.786;2023-06-14T07:30:42;15.77;;;5.57;;
21038;SDS011;10678;51.002;4.786;2023-06-14T07:33:08;13.18;;;5.47;;
21038;SDS011;10678;51.002;4.786;2023-06-14T07:35:36;15.90;;;5.75;;
21038;SDS011;10678;51.002;4.786;2023-06-14T07:38:02;13.25;;;5.40;;
21038;SDS011;10678;51.002;4.786;2023-06-14T07:40:27;9.70;;;4.60;;
21038;SDS011;10678;51.002;4.786;2023-06-14T07:42:53;8.88;;;5.43;;
21038;SDS011;10678;51.002;4.786;2023-06-14T07:45:19;12.30;;;5.22;;
21038;SDS011;10678;51.002;4.786;2023-06-14T07:47:45;11.98;;;4.75;;
21038;SDS011;10678;51.002;4.786;2023-06-14T07:50:11;9.50;;;4.78;;
21038;SDS011;10678;51.002;4.786;2023-06-14T07:52:38;10.40;;;4.72;;
21038;SDS011;10678;51.002;4.786;2023-06-14T07:55:04;13.50;;;4.88;;
21038;SDS011;10678;51.002;4.786;2023-06-14T07:57:31;10.27;;;5.60;;
21038;SDS011;10678;51.002;4.786;2023-06-14T07:59:56;10.63;;;5.30;;
21038;SDS011;10678;51.002;4.786;2023-06-14T08:02:22;10.23;;;5.97;;
21038;SDS011;10678;51.002;4.786;2023-06-14T08:04:47;15.00;;;5.40;;
21038;SDS011;10678;51.002;4.786;2023-06-14T08:07:13;9.75;;;4.78;;
21038;SDS011;10678;51.002;4.786;2023-06-14T08:09:39;9.50;;;5.18;;
21038;SDS011;10678;51.002;4.786;2023-06-14T08:12:05;15.18;;;5.85;;
21038;SDS011;10678;51.002;4.786;2023-06-14T08:14:33;15.73;;;5.15;;
21038;SDS011;10678;51.002;4.786;2023-06-14T08:16:58;15.90;;;5.57;;
21038;SDS011;10678;51.002;4.786;2023-06-14T08:19:24;12.00;;;5.20;;
21038;SDS011;10678;51.002;4.786;2023-06-14T08:21:50;12.10;;;5.60;;
21038;SDS011;10678;51.002;4.786;2023-06-14T08:24:16;13.82;;;5.03;;
21038;SDS011;10678;51.002;4.786;2023-06-14T08:26:42;13.13;;;5.00;;
21038;SDS011;10678;51.002;4.786;2023-06-14T08:29:07;8.73;;;5.00;;
21038;SDS011;10678;51.002;4.786;2023-06-14T08:31:33;8.95;;;5.32;;
21038;SDS011;10678;51.002;4.786;2023-06-14T08:33:59;11.63;;;4.63;;
21038;SDS011;10678;51.002;4.786;2023-06-14T08:36:24;9.35;;;4.90;;
21038;SDS011;10678;51.002;4.786;2023-06-14T08:38:50;13.27;;;4.50;;
21038;SDS011;10678;51.002;4.786;2023-06-14T08:41:20;10.27;;;4.63;;
21038;SDS011;10678;51.002;4.786;2023-06-14T08:43:48;9.65;;;4.60;;
21038;SDS011;10678;51.002;4.786;2023-06-14T08:46:14;8.48;;;4.68;;
21038;SDS011;10678;51.002;4.786;2023-06-14T08:48:46;10.20;;;5.18;;
21038;SDS011;10678;51.002;4.786;2023-06-14T08:51:13;9.35;;;4.43;;
21038;SDS011;10678;51.002;4.786;2023-06-14T08:53:41;7.78;;;4.38;;
21038;SDS011;10678;51.002;4.786;2023-06-14T08:56:07;12.30;;;5.03;;
21038;SDS011;10678;51.002;4.786;2023-06-14T08:58:38;12.15;;;4.60;;
21038;SDS011;10678;51.002;4.786;2023-06-14T09:01:10;10.23;;;4.60;;
21038;SDS011;10678;51.002;4.786;2023-06-14T09:03:42;11.38;;;4.70;;
21038;SDS011;10678;51.002;4.786;2023-06-14T09:06:09;13.15;;;5.03;;
21038;SDS011;10678;51.002;4.786;2023-06-14T09:08:40;9.68;;;4.50;;
21038;SDS011;10678;51.002;4.786;2023-06-14T09:11:13;10.57;;;4.10;;
21038;SDS011;10678;51.002;4.786;2023-06-14T09:13:39;10.23;;;4.13;;
21038;SDS011;10678;51.002;4.786;2023-06-14T09:16:06;9.05;;;3.97;;
21038;SDS011;10678;51.002;4.786;2023-06-14T09:21:02;10.13;;;3.83;;
21038;SDS011;10678;51.002;4.786;2023-06-14T09:23:28;8.90;;;3.83;;
21038;SDS011;10678;51.002;4.786;2023-06-14T09:25:53;11.77;;;3.47;;
21038;SDS011;10678;51.002;4.786;2023-06-14T09:28:19;11.45;;;4.10;;
21038;SDS011;10678;51.002;4.786;2023-06-14T09:30:47;7.63;;;3.50;;
21038;SDS011;10678;51.002;4.786;2023-06-14T09:33:16;9.38;;;4.05;;
21038;SDS011;10678;51.002;4.786;2023-06-14T09:35:45;13.35;;;3.45;;
21038;SDS011;10678;51.002;4.786;2023-06-14T09:38:11;7.78;;;3.70;;
21038;SDS011;10678;51.002;4.786;2023-06-14T09:40:37;10.73;;;3.85;;
21038;SDS011;10678;51.002;4.786;2023-06-14T09:43:06;8.60;;;3.50;;
21038;SDS011;10678;51.002;4.786;2023-06-14T09:45:34;9.77;;;4.05;;
21038;SDS011;10678;51.002;4.786;2023-06-14T09:48:01;9.15;;;3.35;;
21038;SDS011;10678;51.002;4.786;2023-06-14T09:50:27;13.65;;;3.92;;
21038;SDS011;10678;51.002;4.786;2023-06-14T09:52:52;13.73;;;3.70;;
21038;SDS011;10678;51.002;4.786;2023-06-14T09:55:27;8.10;;;3.42;;
21038;SDS011;10678;51.002;4.786;2023-06-14T09:57:55;14.82;;;3.75;;
21038;SDS011;10678;51.002;4.786;2023-06-14T10:00:23;11.15;;;3.83;;
21038;SDS011;10678;51.002;4.786;2023-06-14T10:02:53;12.40;;;3.78;;
21038;SDS011;10678;51.002;4.786;2023-06-14T10:05:22;9.60;;;3.05;;
21038;SDS011;10678;51.002;4.786;2023-06-14T10:07:50;11.63;;;3.33;;
21038;SDS011;10678;51.002;4.786;2023-06-14T10:10:23;7.82;;;3.22;;
21038;SDS011;10678;51.002;4.786;2023-06-14T10:12:49;9.82;;;3.47;;
21038;SDS011;10678;51.002;4.786;2023-06-14T10:15:17;9.45;;;4.40;;
21038;SDS011;10678;51.002;4.786;2023-06-14T10:20:28;8.65;;;3.47;;
21038;SDS011;10678;51.002;4.786;2023-06-14T10:23:06;7.90;;;3.10;;
21038;SDS011;10678;51.002;4.786;2023-06-14T10:25:38;8.23;;;2.78;;
21038;SDS011;10678;51.002;4.786;2023-06-14T10:28:19;7.97;;;3.03;;
21038;SDS011;10678;51.002;4.786;2023-06-14T10:31:08;10.05;;;3.30;;
21038;SDS011;10678;51.002;4.786;2023-06-14T10:33:37;9.65;;;3.30;;
21038;SDS011;10678;51.002;4.786;2023-06-14T10:36:11;7.22;;;3.00;;
21038;SDS011;10678;51.002;4.786;2023-06-14T10:41:29;6.70;;;3.00;;
21038;SDS011;10678;51.002;4.786;2023-06-14T10:46:39;7.88;;;2.85;;
21038;SDS011;10678;51.002;4.786;2023-06-14T10:49:10;9.35;;;3.13;;
21038;SDS011;10678;51.002;4.786;2023-06-14T10:51:41;15.20;;;2.70;;
21038;SDS011;10678;51.002;4.786;2023-06-14T10:54:14;10.15;;;2.95;;
21038;SDS011;10678;51.002;4.786;2023-06-14T10:56:47;10.32;;;2.63;;
21038;SDS011;10678;51.002;4.786;2023-06-14T10:59:17;9.77;;;3.10;;
21038;SDS011;10678;51.002;4.786;2023-06-14T11:04:44;8.65;;;2.90;;
21038;SDS011;10678;51.002;4.786;2023-06-14T11:07:25;8.10;;;3.08;;
21038;SDS011;10678;51.002;4.786;2023-06-14T11:13:08;7.30;;;2.72;;
21038;SDS011;10678;51.002;4.786;2023-06-14T11:15:37;7.60;;;2.70;;
21038;SDS011;10678;51.002;4.786;2023-06-14T11:18:07;8.43;;;2.67;;
21038;SDS011;10678;51.002;4.786;2023-06-14T11:20:35;9.30;;;2.75;;
21038;SDS011;10678;51.002;4.786;2023-06-14T11:23:01;13.32;;;2.90;;
21038;SDS011;10678;51.002;4.786;2023-06-14T11:25:28;4.38;;;2.33;;
21038;SDS011;10678;51.002;4.786;2023-06-14T11:27:54;10.30;;;2.50;;
21038;SDS011;10678;51.002;4.786;2023-06-14T11:30:20;9.38;;;2.65;;
21038;SDS011;10678;51.002;4.786;2023-06-14T11:32:47;11.85;;;2.95;;
21038;SDS011;10678;51.002;4.786;2023-06-14T11:35:17;9.90;;;2.53;;
21038;SDS011;10678;51.002;4.786;2023-06-14T11:37:44;8.57;;;2.55;;
21038;SDS011;10678;51.002;4.786;2023-06-14T11:40:10;8.05;;;2.42;;
21038;SDS011;10678;51.002;4.786;2023-06-14T11:42:37;7.00;;;2.08;;
21038;SDS011;10678;51.002;4.786;2023-06-14T11:45:03;8.88;;;2.80;;
21038;SDS011;10678;51.002;4.786;2023-06-14T11:47:32;9.70;;;3.13;;
21038;SDS011;10678;51.002;4.786;2023-06-14T11:49:59;7.45;;;2.30;;
21038;SDS011;10678;51.002;4.786;2023-06-14T11:52:25;7.57;;;2.50;;
21038;SDS011;10678;51.002;4.786;2023-06-14T11:54:51;5.40;;;2.60;;
21038;SDS011;10678;51.002;4.786;2023-06-14T11:57:17;6.70;;;2.20;;
21038;SDS011;10678;51.002;4.786;2023-06-14T11:59:44;5.00;;;2.08;;
21038;SDS011;10678;51.002;4.786;2023-06-14T12:02:17;8.07;;;2.53;;
21038;SDS011;10678;51.002;4.786;2023-06-14T12:04:44;8.50;;;2.35;;
21038;SDS011;10678;51.002;4.786;2023-06-14T12:07:12;6.25;;;2.08;;
21038;SDS011;10678;51.002;4.786;2023-06-14T12:09:43;5.47;;;2.08;;
21038;SDS011;10678;51.002;4.786;2023-06-14T12:12:31;8.98;;;2.15;;
21038;SDS011;10678;51.002;4.786;2023-06-14T12:15:07;6.93;;;2.10;;
21038;SDS011;10678;51.002;4.786;2023-06-14T12:17:34;9.85;;;2.60;;
21038;SDS011;10678;51.002;4.786;2023-06-14T12:20:13;8.40;;;2.38;;
21038;SDS011;10678;51.002;4.786;2023-06-14T12:22:50;9.65;;;2.33;;
21038;SDS011;10678;51.002;4.786;2023-06-14T12:25:50;6.07;;;1.80;;
21038;SDS011;10678;51.002;4.786;2023-06-14T12:28:09;4.70;;;1.85;;
21038;SDS011;10678;51.002;4.786;2023-06-14T12:30:36;7.35;;;1.85;;
21038;SDS011;10678;51.002;4.786;2023-06-14T12:33:05;6.35;;;2.00;;
21038;SDS011;10678;51.002;4.786;2023-06-14T12:35:31;5.53;;;1.80;;
21038;SDS011;10678;51.002;4.786;2023-06-14T12:37:56;5.18;;;2.00;;
21038;SDS011;10678;51.002;4.786;2023-06-14T12:40:22;7.25;;;1.80;;
21038;SDS011;10678;51.002;4.786;2023-06-14T12:42:48;5.30;;;1.65;;
21038;SDS011;10678;51.002;4.786;2023-06-14T12:45:14;4.20;;;1.67;;
21038;SDS011;10678;51.002;4.786;2023-06-14T12:47:40;4.22;;;1.70;;
21038;SDS011;10678;51.002;4.786;2023-06-14T12:50:07;3.47;;;1.60;;
21038;SDS011;10678;51.002;4.786;2023-06-14T12:52:33;6.15;;;1.63;;
21038;SDS011;10678;51.002;4.786;2023-06-14T12:55:04;7.88;;;1.80;;
21038;SDS011;10678;51.002;4.786;2023-06-14T12:57:30;7.53;;;1.58;;
21038;SDS011;10678;51.002;4.786;2023-06-14T12:59:56;7.03;;;1.52;;
21038;SDS011;10678;51.002;4.786;2023-06-14T13:02:22;5.25;;;1.83;;
21038;SDS011;10678;51.002;4.786;2023-06-14T13:04:49;3.92;;;1.20;;
21038;SDS011;10678;51.002;4.786;2023-06-14T13:07:15;6.03;;;1.40;;
21038;SDS011;10678;51.002;4.786;2023-06-14T13:09:41;4.70;;;1.10;;
21038;SDS011;10678;51.002;4.786;2023-06-14T13:12:07;6.07;;;1.50;;
21038;SDS011;10678;51.002;4.786;2023-06-14T13:14:36;7.30;;;1.33;;
21038;SDS011;10678;51.002;4.786;2023-06-14T13:17:02;5.63;;;1.60;;
21038;SDS011;10678;51.002;4.786;2023-06-14T13:19:28;7.72;;;1.73;;
21038;SDS011;10678;51.002;4.786;2023-06-14T13:21:54;8.20;;;1.63;;
21038;SDS011;10678;51.002;4.786;2023-06-14T13:24:20;4.85;;;1.20;;
21038;SDS011;10678;51.002;4.786;2023-06-14T13:26:45;5.85;;;1.38;;
21038;SDS011;10678;51.002;4.786;2023-06-14T13:29:11;6.80;;;2.05;;
21038;SDS011;10678;51.002;4.786;2023-06-14T13:31:36;3.30;;;1.20;;
21038;SDS011;10678;51.002;4.786;2023-06-14T13:34:02;7.63;;;1.55;;
21038;SDS011;10678;51.002;4.786;2023-06-14T13:36:29;8.68;;;1.40;;
21038;SDS011;10678;51.002;4.786;2023-06-14T13:38:55;4.63;;;1.50;;
21038;SDS011;10678;51.002;4.786;2023-06-14T13:41:20;9.40;;;1.75;;
21038;SDS011;10678;51.002;4.786;2023-06-14T13:43:46;5.18;;;1.85;;
21038;SDS011;10678;51.002;4.786;2023-06-14T13:46:12;4.22;;;1.58;;
21038;SDS011;10678;51.002;4.786;2023-06-14T13:48:38;6.53;;;1.38;;
21038;SDS011;10678;51.002;4.786;2023-06-14T13:51:03;7.45;;;1.45;;
21038;SDS011;10678;51.002;4.786;2023-06-14T13:53:29;8.77;;;1.42;;
21038;SDS011;10678;51.002;4.786;2023-06-14T13:55:55;7.15;;;1.52;;
21038;SDS011;10678;51.002;4.786;2023-06-14T13:58:21;8.60;;;2.15;;
21038;SDS011;10678;51.002;4.786;2023-06-14T14:00:48;6.70;;;1.70;;
21038;SDS011;10678;51.002;4.786;2023-06-14T14:03:14;3.88;;;1.20;;
21038;SDS011;10678;51.002;4.786;2023-06-14T14:05:39;5.93;;;1.42;;
21038;SDS011;10678;51.002;4.786;2023-06-14T14:08:05;6.68;;;1.65;;
21038;SDS011;10678;51.002;4.786;2023-06-14T14:10:31;6.85;;;1.70;;
21038;SDS011;10678;51.002;4.786;2023-06-14T14:12:56;4.43;;;1.83;;
21038;SDS011;10678;51.002;4.786;2023-06-14T14:15:22;5.25;;;1.60;;
21038;SDS011;10678;51.002;4.786;2023-06-14T14:17:47;5.88;;;1.75;;
21038;SDS011;10678;51.002;4.786;2023-06-14T14:20:13;7.20;;;2.17;;
21038;SDS011;10678;51.002;4.786;2023-06-14T14:22:41;3.35;;;1.40;;
21038;SDS011;10678;51.002;4.786;2023-06-14T14:25:07;6.70;;;1.92;;
21038;SDS011;10678;51.002;4.786;2023-06-14T14:27:33;5.35;;;1.67;;
21038;SDS011;10678;51.002;4.786;2023-06-14T14:29:59;4.90;;;1.70;;
21038;SDS011;10678;51.002;4.786;2023-06-14T14:32:26;5.97;;;2.00;;
21038;SDS011;10678;51.002;4.786;2023-06-14T14:34:52;6.13;;;1.88;;
21038;SDS011;10678;51.002;4.786;2023-06-14T14:37:17;10.90;;;1.67;;
21038;SDS011;10678;51.002;4.786;2023-06-14T14:39:44;3.85;;;1.70;;
21038;SDS011;10678;51.002;4.786;2023-06-14T14:42:10;4.97;;;1.80;;
21038;SDS011;10678;51.002;4.786;2023-06-14T14:44:37;9.98;;;2.05;;
21038;SDS011;10678;51.002;4.786;2023-06-14T14:47:03;5.35;;;1.73;;
21038;SDS011;10678;51.002;4.786;2023-06-14T14:49:30;7.07;;;1.65;;
21038;SDS011;10678;51.002;4.786;2023-06-14T14:51:56;6.72;;;1.52;;
21038;SDS011;10678;51.002;4.786;2023-06-14T14:54:22;5.90;;;1.80;;
21038;SDS011;10678;51.002;4.786;2023-06-14T14:56:48;5.28;;;1.80;;
21038;SDS011;10678;51.002;4.786;2023-06-14T14:59:14;6.28;;;1.60;;
21038;SDS011;10678;51.002;4.786;2023-06-14T15:01:40;10.10;;;2.03;;